createdAt,value
2023-10-03T00:04:47.201Z,79.08
2023-10-03T00:09:34.436Z,78.86
2023-10-03T00:14:26.486Z,78.84
2023-10-03T00:19:13.832Z,78.74
2023-10-03T00:24:01.360Z,78.58
2023-10-03T00:28:48.579Z,78.53
2023-10-03T00:33:38.469Z,78.72
2023-10-03T00:38:25.774Z,79.23
2023-10-03T00:43:13.034Z,79.02
2023-10-03T00:48:02.484Z,78.91
2023-10-03T00:52:54.087Z,78.45
2023-10-03T00:57:41.469Z,78.95
2023-10-03T01:02:28.752Z,78.69
2023-10-03T01:07:16.236Z,79.03
2023-10-03T01:12:06.199Z,78.93
2023-10-03T01:16:53.390Z,79.25
2023-10-03T01:21:40.592Z,78.75
2023-10-03T01:26:30.283Z,78.84
2023-10-03T01:31:17.454Z,79.26
2023-10-03T01:36:05.278Z,79.00
2023-10-03T01:40:53.855Z,78.94
2023-10-03T01:45:43.646Z,79.30
2023-10-03T01:50:30.869Z,78.70
2023-10-03T01:55:19.306Z,78.44
2023-10-03T02:00:09.621Z,78.25
2023-10-03T02:05:02.583Z,77.77
2023-10-03T02:09:50.122Z,77.53
2023-10-03T02:14:37.460Z,77.33
2023-10-03T02:19:24.725Z,76.92
2023-10-03T02:24:14.520Z,75.99
2023-10-03T02:29:02.162Z,75.99
2023-10-03T02:33:49.366Z,76.26
2023-10-03T02:38:37.015Z,76.21
2023-10-03T02:43:28.869Z,76.02
2023-10-03T02:48:16.505Z,76.44
2023-10-03T02:53:06.185Z,76.80
2023-10-03T02:57:53.597Z,76.73
2023-10-03T03:02:45.536Z,76.93
2023-10-03T03:07:33.018Z,76.86
2023-10-03T03:12:20.345Z,76.80
2023-10-03T03:17:07.840Z,76.81
2023-10-03T03:21:57.554Z,77.46
2023-10-03T03:26:44.788Z,77.53
2023-10-03T03:31:32.006Z,77.10
2023-10-03T03:36:20.216Z,77.78
2023-10-03T03:41:10.049Z,77.96
2023-10-03T03:45:58.272Z,78.60
2023-10-03T03:50:45.447Z,78.79
2023-10-03T03:55:32.559Z,79.60
2023-10-03T04:00:22.173Z,80.09
2023-10-03T04:05:09.569Z,80.41
2023-10-03T04:09:57.110Z,80.18
2023-10-03T04:14:45.204Z,80.06
2023-10-03T04:19:34.999Z,80.42
2023-10-03T04:24:22.104Z,80.43
2023-10-03T04:29:10.411Z,80.54
2023-10-03T04:33:57.554Z,80.42
2023-10-03T04:38:47.363Z,80.50
2023-10-03T04:43:34.508Z,80.30
2023-10-03T04:48:21.618Z,80.52
2023-10-03T04:53:09.193Z,80.52
2023-10-03T04:57:59.034Z,81.00
2023-10-03T05:02:47.431Z,81.57
2023-10-03T05:07:35.201Z,81.19
2023-10-03T05:12:22.439Z,81.51
2023-10-03T05:17:12.458Z,81.66
2023-10-03T05:21:59.671Z,82.22
2023-10-03T05:26:46.996Z,81.77
2023-10-03T05:31:35.571Z,82.11
2023-10-03T05:36:27.051Z,81.61
2023-10-03T05:41:21.203Z,81.92
2023-10-03T05:46:08.381Z,81.86
2023-10-03T05:50:55.584Z,82.16
2023-10-03T05:55:45.346Z,81.89
2023-10-03T06:00:32.773Z,82.11
2023-10-03T06:05:20.335Z,82.43
2023-10-03T06:10:08.300Z,82.78
2023-10-03T06:14:58.408Z,82.54
2023-10-03T06:19:58.961Z,84.51
2023-10-03T06:24:46.363Z,83.89
2023-10-03T06:29:33.483Z,84.14
2023-10-03T06:34:23.277Z,84.24
2023-10-03T06:39:10.669Z,84.49
2023-10-03T06:43:57.829Z,84.54
2023-10-03T06:48:45.621Z,84.54
2023-10-03T06:53:35.673Z,84.74
2023-10-03T06:58:22.823Z,84.85
2023-10-03T07:03:10.185Z,84.32
2023-10-03T07:07:57.649Z,84.75
2023-10-03T07:12:47.503Z,84.73
2023-10-03T07:17:34.671Z,84.73
2023-10-03T07:22:21.808Z,84.58
2023-10-03T07:27:08.931Z,85.44
2023-10-03T07:31:58.837Z,85.55
2023-10-03T07:36:46.080Z,86.34
2023-10-03T07:41:33.300Z,86.69
2023-10-03T07:46:21.051Z,86.92
2023-10-03T07:51:16.408Z,87.36
2023-10-03T07:56:03.672Z,86.71
2023-10-03T08:00:50.828Z,87.13
2023-10-03T08:05:38.084Z,87.47
2023-10-03T08:10:29.086Z,87.12
2023-10-03T08:15:16.374Z,86.85
2023-10-03T08:20:03.694Z,86.54
2023-10-03T08:24:50.879Z,86.36
2023-10-03T08:29:43.664Z,85.95
2023-10-03T08:34:31.839Z,85.67
2023-10-03T08:39:19.137Z,84.69
2023-10-03T08:44:09.860Z,85.17
2023-10-03T08:49:06.519Z,85.42
2023-10-03T08:53:54.199Z,85.72
2023-10-03T08:58:41.393Z,85.96
2023-10-03T09:03:30.270Z,86.39
2023-10-03T09:08:20.507Z,85.60
2023-10-03T09:13:07.601Z,85.45
2023-10-03T09:17:57.100Z,84.65
2023-10-03T09:22:44.246Z,84.91
2023-10-03T09:27:34.067Z,85.10
2023-10-03T09:32:21.305Z,85.08
2023-10-03T09:37:09.287Z,85.35
2023-10-03T09:41:57.401Z,85.80
2023-10-03T09:46:47.794Z,85.61
2023-10-03T09:51:35.954Z,85.89
2023-10-03T09:56:24.195Z,85.95
2023-10-03T10:01:12.410Z,85.75
2023-10-03T10:06:16.747Z,86.23
2023-10-03T10:11:04.909Z,85.80
2023-10-03T10:16:05.184Z,85.35
2023-10-03T10:21:26.079Z,85.09
2023-10-03T10:26:29.315Z,85.75
2023-10-03T10:31:21.250Z,85.78
2023-10-03T10:36:08.602Z,85.63
2023-10-03T10:41:28.412Z,85.97
2023-10-03T10:46:40.116Z,86.42
2023-10-03T10:51:27.339Z,86.14
2023-10-03T10:56:15.539Z,86.46
2023-10-03T11:01:02.770Z,86.99
2023-10-03T11:05:52.636Z,87.25
2023-10-03T11:10:49.568Z,87.42
2023-10-03T11:15:37.077Z,87.02
2023-10-03T11:20:24.540Z,87.04
2023-10-03T11:25:14.474Z,87.32
2023-10-03T11:30:14.907Z,87.44
2023-10-03T11:35:16.776Z,88.05
2023-10-03T11:40:15.082Z,87.97
2023-10-03T11:45:03.092Z,88.54
2023-10-03T11:49:50.442Z,89.10
2023-10-03T11:54:37.629Z,88.74
2023-10-03T11:59:27.402Z,87.27
2023-10-03T12:04:14.667Z,86.60
2023-10-03T12:09:02.321Z,86.60
2023-10-03T12:13:49.658Z,86.27
2023-10-03T12:18:39.417Z,86.57
2023-10-03T12:23:26.592Z,86.14
2023-10-03T12:28:14.036Z,85.13
2023-10-03T12:33:01.340Z,84.72
2023-10-03T12:37:51.202Z,85.44
2023-10-03T12:42:38.514Z,85.86
2023-10-03T12:47:25.859Z,86.93
2023-10-03T12:52:13.148Z,86.23
2023-10-03T12:57:02.947Z,86.60
2023-10-03T13:01:50.149Z,86.32
2023-10-03T13:06:37.296Z,86.41
2023-10-03T13:11:24.466Z,86.14
2023-10-03T13:16:14.339Z,86.30
2023-10-03T13:21:01.679Z,85.60
2023-10-03T13:25:49.421Z,84.50
2023-10-03T13:30:36.595Z,83.64
2023-10-03T13:35:26.423Z,82.76
2023-10-03T13:40:15.574Z,82.56
2023-10-03T13:45:02.729Z,82.92
2023-10-03T13:49:49.865Z,83.06
2023-10-03T13:54:39.708Z,81.21
2023-10-03T13:59:26.949Z,78.90
2023-10-03T14:04:14.200Z,76.95
2023-10-03T14:09:01.783Z,75.69
2023-10-03T14:13:53.287Z,72.25
2023-10-03T14:18:40.591Z,72.87
2023-10-03T14:23:27.823Z,73.06
2023-10-03T14:28:14.970Z,72.75
2023-10-03T14:33:15.369Z,72.38
2023-10-03T14:38:02.650Z,71.71
2023-10-03T14:42:49.742Z,71.04
2023-10-03T14:47:36.904Z,70.70
2023-10-03T14:52:26.852Z,70.84
2023-10-03T14:57:14.107Z,70.56
2023-10-03T15:02:01.405Z,70.56
2023-10-03T15:06:49.248Z,69.84
2023-10-03T15:11:39.214Z,69.81
2023-10-03T15:16:27.643Z,69.29
2023-10-03T15:21:16.301Z,69.75
2023-10-03T15:26:03.432Z,68.95
2023-10-03T15:30:53.318Z,69.64
2023-10-03T15:35:40.552Z,69.15
2023-10-03T15:40:27.811Z,69.23
2023-10-03T15:45:16.689Z,69.68
2023-10-03T15:50:11.942Z,69.84
2023-10-03T15:54:59.114Z,70.24
2023-10-03T15:59:46.205Z,70.42
2023-10-03T16:04:34.163Z,70.15
2023-10-03T16:09:24.056Z,70.07
2023-10-03T16:14:13.989Z,71.04
2023-10-03T16:19:03.374Z,70.54
2023-10-03T16:23:53.673Z,70.91
2023-10-03T16:28:43.576Z,71.13
2023-10-03T16:33:30.876Z,71.47
2023-10-03T16:38:18.094Z,71.58
2023-10-03T16:43:05.192Z,72.27
2023-10-03T16:47:57.188Z,72.06
2023-10-03T16:52:45.110Z,72.35
2023-10-03T16:57:32.323Z,72.32
2023-10-03T17:02:19.622Z,72.52
2023-10-03T17:07:09.506Z,72.81
2023-10-03T17:11:56.822Z,72.86
2023-10-03T17:16:44.009Z,73.41
2023-10-03T17:21:31.238Z,73.10
2023-10-03T17:26:20.987Z,73.47
2023-10-03T17:31:08.232Z,73.30
2023-10-03T17:35:55.328Z,73.10
2023-10-03T17:40:42.633Z,73.07
2023-10-03T17:45:32.469Z,73.61
2023-10-03T17:50:19.843Z,73.23
2023-10-03T17:55:07.847Z,73.57
2023-10-03T18:04:50.397Z,72.98
2023-10-03T18:09:37.562Z,73.01
2023-10-03T18:14:24.878Z,72.88
2023-10-03T18:19:12.167Z,73.09
2023-10-03T18:24:02.032Z,73.59
2023-10-03T18:28:49.304Z,73.40
2023-10-03T18:33:36.563Z,73.59
2023-10-03T18:38:23.857Z,73.92
2023-10-03T18:43:13.683Z,73.91
2023-10-03T18:48:01.045Z,73.56
2023-10-03T18:52:48.300Z,74.11
2023-10-03T18:57:35.558Z,74.13
2023-10-03T19:02:25.441Z,74.29
2023-10-03T19:07:12.799Z,74.76
2023-10-03T19:12:00.103Z,74.26
2023-10-03T19:16:47.262Z,74.88
2023-10-03T19:21:37.102Z,74.77
2023-10-03T19:26:24.302Z,74.53
2023-10-03T19:31:14.374Z,74.92
2023-10-03T19:36:01.663Z,74.83
2023-10-03T19:40:51.408Z,75.34
2023-10-03T19:45:38.898Z,75.76
2023-10-03T19:50:26.059Z,76.01
2023-10-03T19:55:13.339Z,76.51
2023-10-03T20:00:03.782Z,76.34
2023-10-03T20:04:55.509Z,76.91
2023-10-03T20:09:42.749Z,77.14
2023-10-03T20:14:30.034Z,77.86
2023-10-03T20:19:19.833Z,78.29
2023-10-03T20:24:07.804Z,78.49
2023-10-03T20:28:55.011Z,78.78
2023-10-03T20:33:42.251Z,79.33
2023-10-03T20:38:32.194Z,79.28
2023-10-03T20:43:19.312Z,79.69
2023-10-03T20:48:07.040Z,79.49
2023-10-03T20:52:54.341Z,79.67
2023-10-03T20:57:44.115Z,79.90
2023-10-03T21:02:31.310Z,79.74
2023-10-03T21:07:18.539Z,80.01
2023-10-03T21:12:06.009Z,79.43
2023-10-03T21:16:55.831Z,79.54
2023-10-03T21:21:42.982Z,79.10
2023-10-03T21:26:30.109Z,78.97
2023-10-03T21:31:17.357Z,79.11
2023-10-03T21:36:07.571Z,78.87
2023-10-03T21:40:54.840Z,78.44
2023-10-03T21:45:41.989Z,78.21
2023-10-03T21:50:29.187Z,78.29
2023-10-03T21:55:19.114Z,78.06
2023-10-03T22:00:07.839Z,77.87
2023-10-03T22:04:58.089Z,77.80
2023-10-03T22:09:45.541Z,77.70
2023-10-03T22:14:35.411Z,77.64
2023-10-03T22:19:25.234Z,77.26
2023-10-03T22:24:12.374Z,77.29
2023-10-03T22:28:59.588Z,77.23
2023-10-03T22:33:49.534Z,77.50
2023-10-03T22:38:36.786Z,77.12
2023-10-03T22:43:35.187Z,77.26
2023-10-03T22:48:22.331Z,77.42
2023-10-03T22:53:12.084Z,77.20
2023-10-03T22:57:59.233Z,77.28
2023-10-03T23:02:46.443Z,77.11
2023-10-03T23:07:33.608Z,77.38
2023-10-03T23:12:23.358Z,77.40
2023-10-03T23:17:10.483Z,77.71
2023-10-03T23:21:57.725Z,77.87
2023-10-03T23:26:44.797Z,77.99
2023-10-03T23:31:34.601Z,78.02
2023-10-03T23:36:21.683Z,78.00
2023-10-03T23:41:08.957Z,78.09
2023-10-03T23:45:56.326Z,78.49
2023-10-03T23:50:46.151Z,78.72
2023-10-03T23:55:33.763Z,78.68
